createdAt,value
2022-07-31T00:00:31.670Z,100315.66
2022-07-31T00:02:59.577Z,100317.84
2022-07-31T00:05:28.047Z,100323.97
2022-07-31T00:07:55.976Z,100318.66
2022-07-31T00:10:24.380Z,100322.44
2022-07-31T00:12:53.818Z,100324.78
2022-07-31T00:15:22.550Z,100320.47
2022-07-31T00:17:53.228Z,100322.47
2022-07-31T00:20:21.300Z,100328.41
2022-07-31T00:22:50.541Z,100331.53
2022-07-31T00:25:19.049Z,100323.44
2022-07-31T00:27:47.545Z,100319.28
2022-07-31T00:30:18.066Z,100319.63
2022-07-31T00:32:46.452Z,100302.63
2022-07-31T00:35:17.365Z,100313.19
2022-07-31T00:37:45.360Z,100316.84
2022-07-31T00:40:16.089Z,100310.75
2022-07-31T00:42:44.325Z,100308.09
2022-07-31T00:45:13.746Z,100309.53
2022-07-31T00:47:43.808Z,100311.69
2022-07-31T00:50:13.007Z,100315.78
2022-07-31T00:52:41.195Z,100307.66
2022-07-31T00:55:09.992Z,100309.97
2022-07-31T00:57:38.344Z,100299.22
2022-07-31T01:00:07.780Z,100300.09
2022-07-31T01:02:35.933Z,100300.69
2022-07-31T01:05:05.853Z,100299.00
2022-07-31T01:07:34.313Z,100301.56
2022-07-31T01:10:06.984Z,100301.56
2022-07-31T01:12:40.950Z,100300.00
2022-07-31T01:15:11.263Z,100298.38
2022-07-31T01:17:41.043Z,100292.09
2022-07-31T01:20:12.082Z,100296.38
2022-07-31T01:23:14.848Z,100298.72
2022-07-31T01:26:05.320Z,100297.09
2022-07-31T01:29:07.682Z,100291.19
2022-07-31T01:31:40.612Z,100293.84
2022-07-31T01:34:12.415Z,100286.97
2022-07-31T01:36:49.944Z,100290.66
2022-07-31T01:39:19.398Z,100287.75
2022-07-31T01:41:51.289Z,100287.47
2022-07-31T01:44:22.022Z,100277.47
2022-07-31T01:46:51.002Z,100270.47
2022-07-31T01:49:19.977Z,100286.66
2022-07-31T01:51:49.856Z,100280.50
2022-07-31T01:54:21.728Z,100289.66
2022-07-31T01:56:51.922Z,100287.16
2022-07-31T01:59:24.521Z,100286.03
2022-07-31T02:02:29.581Z,100278.13
2022-07-31T02:04:59.228Z,100284.53
2022-07-31T02:07:29.668Z,100273.59
2022-07-31T02:09:59.786Z,100280.94
2022-07-31T02:12:34.733Z,100282.44
2022-07-31T02:15:09.913Z,100279.66
2022-07-31T02:17:40.934Z,100276.13
2022-07-31T02:20:25.054Z,100280.91
2022-07-31T02:22:57.318Z,100282.06
2022-07-31T02:25:27.195Z,100268.13
2022-07-31T02:27:57.543Z,100272.28
2022-07-31T02:30:39.222Z,100273.03
2022-07-31T02:33:11.932Z,100264.97
2022-07-31T02:35:44.155Z,100267.25
2022-07-31T02:38:22.761Z,100258.53
2022-07-31T02:40:57.412Z,100265.75
2022-07-31T02:43:26.951Z,100268.28
2022-07-31T02:45:59.095Z,100262.50
2022-07-31T02:48:27.709Z,100260.44
2022-07-31T02:50:59.480Z,100263.91
2022-07-31T02:53:27.622Z,100272.78
2022-07-31T02:56:01.146Z,100262.06
2022-07-31T02:58:33.318Z,100266.19
2022-07-31T03:01:05.175Z,100266.47
2022-07-31T03:03:35.028Z,100257.63
2022-07-31T03:06:03.435Z,100261.75
2022-07-31T03:08:31.822Z,100264.25
2022-07-31T03:11:04.297Z,100260.19
2022-07-31T03:13:35.126Z,100251.63
2022-07-31T03:16:06.949Z,100252.59
2022-07-31T03:18:35.868Z,100250.56
2022-07-31T03:21:04.021Z,100248.81
2022-07-31T03:23:36.403Z,100246.09
2022-07-31T03:26:17.605Z,100248.47
2022-07-31T03:28:45.669Z,100247.81
2022-07-31T03:31:15.735Z,100249.06
2022-07-31T03:33:43.902Z,100244.63
2022-07-31T03:36:12.765Z,100251.41
2022-07-31T03:38:47.551Z,100252.09
2022-07-31T03:41:27.175Z,100257.50
2022-07-31T03:43:55.455Z,100256.94
2022-07-31T03:46:26.342Z,100251.56
2022-07-31T03:48:55.608Z,100255.78
2022-07-31T03:51:26.781Z,100258.06
2022-07-31T03:53:55.624Z,100268.81
2022-07-31T03:56:47.607Z,100267.53
2022-07-31T03:59:19.172Z,100256.94
2022-07-31T04:01:57.685Z,100268.38
2022-07-31T04:05:09.903Z,100269.31
2022-07-31T04:07:40.834Z,100272.72
2022-07-31T04:10:09.610Z,100273.38
2022-07-31T04:12:37.868Z,100269.16
2022-07-31T04:15:06.546Z,100262.06
2022-07-31T04:17:37.578Z,100269.22
2022-07-31T04:20:08.915Z,100275.34
2022-07-31T04:22:37.163Z,100273.41
2022-07-31T04:25:14.137Z,100271.38
2022-07-31T04:28:06.087Z,100281.88
2022-07-31T04:30:35.360Z,100280.22
2022-07-31T04:33:06.850Z,100274.84
2022-07-31T04:35:35.029Z,100283.19
2022-07-31T04:38:03.311Z,100283.88
2022-07-31T04:40:36.477Z,100282.69
2022-07-31T04:43:04.815Z,100290.84
2022-07-31T04:45:32.766Z,100282.25
2022-07-31T04:48:00.742Z,100285.44
2022-07-31T04:50:29.973Z,100279.50
2022-07-31T04:52:59.821Z,100277.34
2022-07-31T04:55:33.495Z,100277.19
2022-07-31T04:58:01.928Z,100274.53
2022-07-31T05:00:30.344Z,100276.69
2022-07-31T05:02:58.372Z,100286.09
2022-07-31T05:05:26.133Z,100279.81
2022-07-31T05:07:55.513Z,100279.19
2022-07-31T05:10:46.496Z,100277.19
2022-07-31T05:13:16.009Z,100286.78
2022-07-31T05:15:44.854Z,100285.59
2022-07-31T05:18:13.024Z,100281.16
2022-07-31T05:20:49.741Z,100287.91
2022-07-31T05:23:37.623Z,100285.06
2022-07-31T05:26:30.337Z,100282.75
2022-07-31T05:29:02.259Z,100283.66
2022-07-31T05:31:30.313Z,100287.34
2022-07-31T05:33:59.584Z,100289.19
2022-07-31T05:36:28.313Z,100292.19
2022-07-31T05:38:57.842Z,100281.44
2022-07-31T05:41:51.398Z,100292.16
2022-07-31T05:44:33.223Z,100280.88
2022-07-31T05:47:01.392Z,100280.59
2022-07-31T05:49:30.713Z,100276.13
2022-07-31T05:52:03.016Z,100282.19
2022-07-31T05:54:33.378Z,100286.09
2022-07-31T05:57:33.492Z,100276.94
2022-07-31T06:00:05.608Z,100283.00
2022-07-31T06:02:40.191Z,100281.16
2022-07-31T06:05:20.621Z,100281.88
2022-07-31T06:07:51.918Z,100281.38
2022-07-31T06:10:23.953Z,100286.69
2022-07-31T06:12:52.410Z,100281.66
2022-07-31T06:15:21.070Z,100290.78
2022-07-31T06:17:51.020Z,100288.47
2022-07-31T06:20:25.867Z,100292.19
2022-07-31T06:22:54.295Z,100292.38
2022-07-31T06:25:24.761Z,100296.81
2022-07-31T06:28:00.035Z,100292.75
2022-07-31T06:30:29.781Z,100300.91
2022-07-31T06:32:57.958Z,100299.03
2022-07-31T06:35:26.632Z,100300.09
2022-07-31T06:38:17.451Z,100300.81
2022-07-31T06:41:05.052Z,100309.41
2022-07-31T06:43:39.752Z,100305.16
2022-07-31T06:46:29.683Z,100314.91
2022-07-31T06:49:23.961Z,100311.25
2022-07-31T06:51:52.306Z,100311.06
2022-07-31T06:54:20.326Z,100312.38
2022-07-31T06:56:57.217Z,100304.94
2022-07-31T06:59:39.422Z,100314.13
2022-07-31T07:02:08.750Z,100316.59
2022-07-31T07:05:04.580Z,100317.34
2022-07-31T07:07:31.653Z,100314.19
2022-07-31T07:10:01.992Z,100310.91
2022-07-31T07:12:50.372Z,100314.41
2022-07-31T07:15:19.360Z,100312.56
2022-07-31T07:17:47.154Z,100312.25
2022-07-31T07:20:20.280Z,100315.56
2022-07-31T07:22:48.801Z,100310.22
2022-07-31T07:25:32.095Z,100305.91
2022-07-31T07:28:03.038Z,100305.56
2022-07-31T07:30:32.020Z,100303.41
2022-07-31T07:33:02.457Z,100302.19
2022-07-31T07:35:34.009Z,100300.22
2022-07-31T07:38:07.881Z,100296.97
2022-07-31T07:40:38.367Z,100292.84
2022-07-31T07:43:08.082Z,100290.97
2022-07-31T07:45:36.785Z,100286.91
2022-07-31T07:48:07.536Z,100291.41
2022-07-31T07:50:58.872Z,100287.81
2022-07-31T07:53:32.197Z,100290.22
2022-07-31T07:56:23.194Z,100284.84
2022-07-31T07:59:15.126Z,100297.69
2022-07-31T08:02:02.157Z,100298.28
2022-07-31T08:04:33.583Z,100295.25
2022-07-31T08:07:01.773Z,100292.84
2022-07-31T08:09:35.756Z,100288.34
2022-07-31T08:12:22.382Z,100292.84
2022-07-31T08:15:08.274Z,100286.69
2022-07-31T08:17:39.212Z,100290.66
2022-07-31T08:20:08.973Z,100276.38
2022-07-31T08:22:37.329Z,100284.47
2022-07-31T08:25:05.937Z,100283.97
2022-07-31T08:27:39.586Z,100278.97
2022-07-31T08:30:12.027Z,100275.19
2022-07-31T08:32:40.280Z,100265.72
2022-07-31T08:35:21.075Z,100270.94
2022-07-31T08:37:51.151Z,100265.34
2022-07-31T08:40:34.944Z,100262.44
2022-07-31T08:44:00.636Z,100268.56
2022-07-31T08:46:03.814Z,100268.13
2022-07-31T08:48:41.131Z,100275.59
2022-07-31T08:51:11.897Z,100271.97
2022-07-31T08:54:13.064Z,100267.81
2022-07-31T08:56:44.067Z,100268.97
2022-07-31T08:59:12.069Z,100267.84
2022-07-31T09:01:41.872Z,100267.78
2022-07-31T09:04:09.824Z,100266.44
2022-07-31T09:06:38.463Z,100264.41
2022-07-31T09:09:07.168Z,100265.59
2022-07-31T09:11:47.352Z,100259.09
2022-07-31T09:14:36.416Z,100259.25
2022-07-31T09:17:10.133Z,100250.19
2022-07-31T09:19:52.287Z,100256.94
2022-07-31T09:22:27.019Z,100254.38
2022-07-31T09:25:09.968Z,100247.16
2022-07-31T09:27:38.631Z,100250.97
2022-07-31T09:30:09.184Z,100249.63
2022-07-31T09:33:18.846Z,100241.28
2022-07-31T09:36:09.909Z,100241.59
2022-07-31T09:38:40.985Z,100245.75
2022-07-31T09:42:01.007Z,100246.31
2022-07-31T09:44:26.839Z,100229.19
2022-07-31T09:46:55.391Z,100221.75
2022-07-31T09:49:36.600Z,100229.31
2022-07-31T09:52:05.455Z,100227.69
2022-07-31T09:54:35.027Z,100224.91
2022-07-31T09:57:13.243Z,100221.16
2022-07-31T09:59:45.295Z,100215.56
2022-07-31T10:02:17.586Z,100217.22
2022-07-31T10:04:54.828Z,100210.13
2022-07-31T10:07:32.328Z,100210.34
2022-07-31T10:10:18.821Z,100205.59
2022-07-31T10:13:04.978Z,100200.72
2022-07-31T10:15:34.516Z,100200.16
2022-07-31T10:18:35.607Z,100195.44
2022-07-31T10:21:30.706Z,100191.53
2022-07-31T10:24:12.308Z,100195.81
2022-07-31T10:27:01.303Z,100188.53
2022-07-31T10:29:33.264Z,100184.78
2022-07-31T10:32:07.252Z,100184.06
2022-07-31T10:34:40.236Z,100187.59
2022-07-31T10:37:36.868Z,100186.78
2022-07-31T10:40:27.891Z,100183.88
2022-07-31T10:43:19.604Z,100184.41
2022-07-31T10:46:05.836Z,100174.69
2022-07-31T10:48:54.158Z,100176.13
2022-07-31T10:51:54.930Z,100169.16
2022-07-31T10:54:46.065Z,100169.97
2022-07-31T10:57:34.681Z,100172.28
2022-07-31T11:00:34.589Z,100161.94
2022-07-31T11:03:39.915Z,100160.28
2022-07-31T11:06:18.906Z,100151.25
2022-07-31T11:08:57.876Z,100147.19
2022-07-31T11:11:46.083Z,100147.44
2022-07-31T11:14:46.993Z,100140.84
2022-07-31T11:18:22.744Z,100126.00
2022-07-31T11:20:32.726Z,100125.56
2022-07-31T11:23:03.350Z,100118.56
2022-07-31T11:25:34.516Z,100114.41
2022-07-31T11:28:14.363Z,100117.53
2022-07-31T11:30:49.943Z,100126.91
2022-07-31T11:33:18.129Z,100137.84
2022-07-31T11:35:46.185Z,100130.06
2022-07-31T11:38:14.495Z,100121.00
2022-07-31T11:40:50.518Z,100122.13
2022-07-31T11:43:27.453Z,100135.41
2022-07-31T11:45:56.173Z,100128.31
2022-07-31T11:48:27.780Z,100133.34
2022-07-31T11:50:56.105Z,100122.56
2022-07-31T11:53:24.281Z,100107.22
2022-07-31T11:55:56.186Z,100126.53
2022-07-31T11:58:29.709Z,100113.31
2022-07-31T12:01:00.074Z,100103.88
2022-07-31T12:03:31.218Z,100084.50
2022-07-31T12:05:59.739Z,100093.44
2022-07-31T12:08:29.797Z,100093.41
2022-07-31T12:11:00.388Z,100094.59
2022-07-31T12:13:31.609Z,100085.78
2022-07-31T12:16:02.054Z,100067.88
2022-07-31T12:18:31.020Z,100056.91
2022-07-31T12:21:00.746Z,100051.72
2022-07-31T12:23:41.778Z,100042.88
2022-07-31T12:26:13.914Z,100042.88
2022-07-31T12:28:43.789Z,100029.53
2022-07-31T12:31:11.987Z,100036.81
2022-07-31T12:33:45.734Z,100054.41
2022-07-31T12:36:15.925Z,100053.88
2022-07-31T12:38:45.483Z,100055.59
2022-07-31T12:41:17.362Z,100056.41
2022-07-31T12:43:51.642Z,100067.44
2022-07-31T12:46:22.459Z,100070.94
2022-07-31T12:48:52.210Z,100049.72
2022-07-31T12:51:45.416Z,100027.75
2022-07-31T12:54:12.782Z,100037.22
2022-07-31T12:56:41.922Z,100028.41
2022-07-31T12:59:12.372Z,100020.81
2022-07-31T13:01:40.818Z,100018.16
2022-07-31T13:04:18.902Z,100019.94
2022-07-31T13:06:51.889Z,100016.56
2022-07-31T13:09:20.476Z,100018.19
2022-07-31T13:11:51.237Z,100015.47
2022-07-31T13:14:24.452Z,100018.06
2022-07-31T13:16:54.332Z,99998.78
2022-07-31T13:19:22.277Z,99985.41
2022-07-31T13:21:50.465Z,99969.38
2022-07-31T13:24:19.426Z,99951.44
2022-07-31T13:26:47.929Z,99939.06
2022-07-31T13:29:16.810Z,99947.56
2022-07-31T13:31:46.058Z,99948.28
2022-07-31T13:34:14.746Z,99952.91
2022-07-31T13:36:42.983Z,99939.13
2022-07-31T13:39:12.404Z,99937.28
2022-07-31T13:41:41.896Z,99943.03
2022-07-31T13:44:10.768Z,99938.72
2022-07-31T13:46:39.330Z,99933.38
2022-07-31T13:49:10.594Z,99926.75
2022-07-31T13:51:40.245Z,99931.22
2022-07-31T13:54:08.632Z,99936.13
2022-07-31T13:56:42.672Z,99927.91
2022-07-31T13:59:13.578Z,99908.97
2022-07-31T14:02:03.659Z,99914.72
2022-07-31T14:04:38.883Z,99903.31
2022-07-31T14:07:08.239Z,99901.03
2022-07-31T14:09:37.820Z,99902.22
2022-07-31T14:12:06.618Z,99902.78
2022-07-31T14:14:35.085Z,99905.78
2022-07-31T14:17:03.367Z,99896.66
2022-07-31T14:19:42.019Z,99887.28
2022-07-31T14:22:14.108Z,99889.66
2022-07-31T14:24:50.728Z,99893.50
2022-07-31T14:27:19.923Z,99894.03
2022-07-31T14:29:48.074Z,99893.50
2022-07-31T14:32:16.543Z,99887.97
2022-07-31T14:34:46.119Z,99890.81
2022-07-31T14:37:14.343Z,99888.81
2022-07-31T14:39:42.801Z,99884.16
2022-07-31T14:42:13.748Z,99884.06
2022-07-31T14:44:42.724Z,99883.22
2022-07-31T14:47:12.293Z,99894.25
2022-07-31T14:50:07.250Z,99886.00
2022-07-31T14:52:30.886Z,99892.19
2022-07-31T14:54:59.629Z,99887.06
2022-07-31T14:57:27.996Z,99881.31
2022-07-31T14:59:56.182Z,99883.56
2022-07-31T15:02:24.226Z,99889.75
2022-07-31T15:04:52.459Z,99896.59
2022-07-31T15:07:39.795Z,99896.66
2022-07-31T15:10:12.184Z,99888.03
2022-07-31T15:12:40.319Z,99891.69
2022-07-31T15:15:09.165Z,99888.69
2022-07-31T15:17:37.530Z,99894.13
2022-07-31T15:20:06.453Z,99889.13
2022-07-31T15:22:35.302Z,99887.13
2022-07-31T15:25:03.191Z,99898.31
2022-07-31T15:27:32.919Z,99892.66
2022-07-31T15:30:06.696Z,99889.03
2022-07-31T15:32:36.966Z,99890.88
2022-07-31T15:35:06.214Z,99888.97
2022-07-31T15:37:36.057Z,99881.59
2022-07-31T15:40:06.675Z,99878.94
2022-07-31T15:42:40.310Z,99883.72
2022-07-31T15:45:11.465Z,99882.59
2022-07-31T15:47:40.384Z,99896.25
2022-07-31T15:50:09.917Z,99888.94
2022-07-31T15:52:38.233Z,99888.88
2022-07-31T15:55:07.310Z,99885.00
2022-07-31T15:57:36.849Z,99886.00
2022-07-31T16:00:06.988Z,99876.94
2022-07-31T16:02:39.664Z,99863.50
2022-07-31T16:05:21.567Z,99859.97
2022-07-31T16:08:28.803Z,99864.59
2022-07-31T16:10:51.142Z,99867.47
2022-07-31T16:13:23.812Z,99862.53
2022-07-31T16:15:52.474Z,99864.69
2022-07-31T16:18:20.505Z,99864.78
2022-07-31T16:20:49.048Z,99856.97
2022-07-31T16:23:17.422Z,99856.25
2022-07-31T16:25:45.281Z,99859.13
2022-07-31T16:28:13.523Z,99847.03
2022-07-31T16:30:43.885Z,99859.00
2022-07-31T16:33:12.169Z,99842.41
2022-07-31T16:35:40.148Z,99844.75
2022-07-31T16:38:08.795Z,99844.22
2022-07-31T16:40:36.674Z,99838.81
2022-07-31T16:43:47.631Z,99828.00
2022-07-31T16:45:57.540Z,99825.44
2022-07-31T16:48:25.876Z,99825.06
2022-07-31T16:50:55.186Z,99830.72
2022-07-31T16:54:14.264Z,99826.63
2022-07-31T16:56:12.479Z,99826.84
2022-07-31T16:58:40.425Z,99823.16
2022-07-31T17:01:57.669Z,99830.38
2022-07-31T17:04:01.258Z,99836.09
2022-07-31T17:06:35.189Z,99837.72
2022-07-31T17:09:16.048Z,99827.22
2022-07-31T17:11:48.265Z,99830.41
2022-07-31T17:14:17.011Z,99824.56
2022-07-31T17:16:48.622Z,99816.28
2022-07-31T17:19:41.085Z,99819.47
2022-07-31T17:22:07.845Z,99829.75
2022-07-31T17:24:37.716Z,99838.09
2022-07-31T17:27:08.216Z,99830.78
2022-07-31T17:29:37.479Z,99834.16
2022-07-31T17:32:08.148Z,99840.81
2022-07-31T17:34:40.077Z,99841.19
2022-07-31T17:37:08.959Z,99830.88
2022-07-31T17:39:37.461Z,99842.22
2022-07-31T17:42:05.904Z,99836.53
2022-07-31T17:44:37.686Z,99834.09
2022-07-31T17:47:08.227Z,99833.91
2022-07-31T17:49:37.803Z,99836.09
2022-07-31T17:52:07.127Z,99837.06
2022-07-31T17:54:35.851Z,99829.69
2022-07-31T17:57:04.445Z,99838.91
2022-07-31T17:59:33.318Z,99839.25
2022-07-31T18:02:03.966Z,99832.06
2022-07-31T18:04:36.980Z,99837.56
2022-07-31T18:07:06.783Z,99833.41
2022-07-31T18:09:36.604Z,99839.06
2022-07-31T18:12:05.849Z,99841.63
2022-07-31T18:14:34.201Z,99851.75
2022-07-31T18:17:03.386Z,99853.94
2022-07-31T18:19:31.705Z,99848.50
2022-07-31T18:22:01.009Z,99863.59
2022-07-31T18:24:29.302Z,99851.69
2022-07-31T18:26:57.359Z,99861.22
2022-07-31T18:29:25.399Z,99865.47
2022-07-31T18:31:54.498Z,99862.66
2022-07-31T18:34:23.870Z,99867.66
2022-07-31T18:36:54.989Z,99872.56
2022-07-31T18:39:26.402Z,99870.38
2022-07-31T18:41:54.639Z,99878.25
2022-07-31T18:44:24.001Z,99874.56
2022-07-31T18:46:53.293Z,99872.59
2022-07-31T18:50:59.294Z,99874.19
2022-07-31T18:52:10.951Z,99868.50
2022-07-31T18:54:41.653Z,99877.19
2022-07-31T18:57:10.707Z,99875.97
2022-07-31T18:59:41.788Z,99871.69
2022-07-31T19:02:12.243Z,99881.50
2022-07-31T19:04:41.220Z,99874.75
2022-07-31T19:07:10.340Z,99882.28
2022-07-31T19:09:42.995Z,99892.56
2022-07-31T19:12:11.921Z,99886.19
2022-07-31T19:14:41.333Z,99893.81
2022-07-31T19:17:12.467Z,99891.41
2022-07-31T19:20:01.329Z,99892.66
2022-07-31T19:22:30.531Z,99899.06
2022-07-31T19:25:01.025Z,99909.34
2022-07-31T19:27:46.905Z,99906.69
2022-07-31T19:30:18.344Z,99900.81
2022-07-31T19:32:46.112Z,99904.09
2022-07-31T19:35:15.630Z,99904.94
2022-07-31T19:37:43.430Z,99903.28
2022-07-31T19:40:14.714Z,99908.84
2022-07-31T19:42:42.625Z,99918.25
2022-07-31T19:45:11.367Z,99914.78
2022-07-31T19:47:41.185Z,99917.44
2022-07-31T19:50:10.385Z,99923.81
2022-07-31T19:52:38.524Z,99920.34
2022-07-31T19:55:08.575Z,99919.09
2022-07-31T19:57:38.612Z,99930.34
2022-07-31T20:00:09.227Z,99931.16
2022-07-31T20:02:37.197Z,99934.09
2022-07-31T20:05:06.353Z,99939.25
2022-07-31T20:07:34.499Z,99943.34
2022-07-31T20:10:02.998Z,99933.09
2022-07-31T20:12:30.867Z,99939.44
2022-07-31T20:15:00.660Z,99940.22
2022-07-31T20:17:29.344Z,99943.94
2022-07-31T20:20:14.525Z,99940.84
2022-07-31T20:22:43.524Z,99950.25
2022-07-31T20:25:11.980Z,99944.28
2022-07-31T20:27:48.237Z,99946.94
2022-07-31T20:30:21.824Z,99954.69
2022-07-31T20:32:49.950Z,99948.31
2022-07-31T20:35:47.358Z,99939.66
2022-07-31T20:38:08.968Z,99946.78
2022-07-31T20:40:53.045Z,99947.00
2022-07-31T20:43:23.422Z,99955.09
2022-07-31T20:45:53.900Z,99950.56
2022-07-31T20:48:24.717Z,99953.88
2022-07-31T20:50:53.370Z,99957.50
2022-07-31T20:53:22.255Z,99956.56
2022-07-31T20:55:51.313Z,99960.19
2022-07-31T20:58:20.092Z,99963.69
2022-07-31T21:00:49.604Z,99967.59
2022-07-31T21:03:20.108Z,99958.44
2022-07-31T21:05:48.142Z,99965.41
2022-07-31T21:08:16.662Z,99958.75
2022-07-31T21:10:46.670Z,99962.63
2022-07-31T21:13:15.174Z,99953.06
2022-07-31T21:15:45.361Z,99955.66
2022-07-31T21:18:16.578Z,99962.78
2022-07-31T21:20:52.211Z,99964.09
2022-07-31T21:23:22.775Z,99963.41
2022-07-31T21:25:50.863Z,99966.16
2022-07-31T21:28:19.640Z,99969.09
2022-07-31T21:30:48.195Z,99969.41
2022-07-31T21:33:18.122Z,99974.47
2022-07-31T21:35:48.617Z,99974.13
2022-07-31T21:38:17.663Z,99977.75
2022-07-31T21:40:46.712Z,99984.47
2022-07-31T21:43:18.717Z,99985.50
2022-07-31T21:45:57.380Z,99985.03
2022-07-31T21:48:30.867Z,99990.81
2022-07-31T21:51:01.541Z,99982.50
2022-07-31T21:53:29.594Z,99987.66
2022-07-31T21:56:01.952Z,99984.72
2022-07-31T21:58:29.751Z,99993.47
2022-07-31T22:00:58.739Z,99986.28
2022-07-31T22:03:27.942Z,99990.78
2022-07-31T22:06:13.558Z,99997.28
2022-07-31T22:08:43.230Z,99999.75
2022-07-31T22:11:11.421Z,99999.38
2022-07-31T22:13:39.908Z,100003.03
2022-07-31T22:16:07.980Z,99996.84
2022-07-31T22:18:36.613Z,99994.56
2022-07-31T22:21:06.883Z,100002.78
2022-07-31T22:23:36.496Z,100004.63
2022-07-31T22:26:06.253Z,100009.88
2022-07-31T22:28:35.056Z,100010.03
2022-07-31T22:31:03.878Z,100003.03
2022-07-31T22:33:32.435Z,100014.09
2022-07-31T22:36:07.181Z,100013.72
2022-07-31T22:38:37.873Z,100025.28
2022-07-31T22:41:08.014Z,100019.91
2022-07-31T22:44:11.587Z,100020.09
2022-07-31T22:46:25.160Z,100027.13
2022-07-31T22:48:55.510Z,100031.22
2022-07-31T22:51:23.771Z,100031.72
2022-07-31T22:53:51.877Z,100024.13
2022-07-31T22:56:21.301Z,100028.75
2022-07-31T22:58:49.081Z,100032.22
2022-07-31T23:01:17.317Z,100044.38
2022-07-31T23:03:45.390Z,100048.81
2022-07-31T23:06:31.106Z,100041.00
2022-07-31T23:09:01.742Z,100051.09
2022-07-31T23:11:30.956Z,100050.25
2022-07-31T23:13:59.279Z,100051.81
2022-07-31T23:16:27.242Z,100059.41
2022-07-31T23:18:55.902Z,100058.75
2022-07-31T23:21:24.098Z,100060.13
2022-07-31T23:23:52.525Z,100063.81
2022-07-31T23:26:21.544Z,100060.47
2022-07-31T23:28:51.063Z,100057.47
2022-07-31T23:31:19.592Z,100052.88
2022-07-31T23:33:48.669Z,100057.09
2022-07-31T23:36:17.508Z,100050.34
2022-07-31T23:38:46.290Z,100052.38
2022-07-31T23:41:15.390Z,100045.47
2022-07-31T23:43:54.407Z,100053.19
2022-07-31T23:46:26.654Z,100043.84
2022-07-31T23:48:55.987Z,100054.56
2022-07-31T23:51:24.522Z,100038.44
2022-07-31T23:53:52.917Z,100045.22
2022-07-31T23:56:20.780Z,100041.59
2022-07-31T23:58:48.949Z,100048.22
